sensor_id;sensor_type;location;lat;lon;timestamp;P1;durP1;ratioP1;P2;durP2;ratioP2
52586;SDS011;38480;52.724;6.436;2023-03-19T00:00:53;31.77;;;23.13;;
52586;SDS011;38480;52.724;6.436;2023-03-19T00:03:19;29.43;;;21.40;;
52586;SDS011;38480;52.724;6.436;2023-03-19T00:05:51;27.50;;;21.77;;
52586;SDS011;38480;52.724;6.436;2023-03-19T00:08:18;25.13;;;19.42;;
52586;SDS011;38480;52.724;6.436;2023-03-19T00:10:44;30.33;;;20.77;;
52586;SDS011;38480;52.724;6.436;2023-03-19T00:13:10;28.93;;;20.53;;
52586;SDS011;38480;52.724;6.436;2023-03-19T00:15:36;31.33;;;21.77;;
52586;SDS011;38480;52.724;6.436;2023-03-19T00:18:02;33.20;;;22.03;;
52586;SDS011;38480;52.724;6.436;2023-03-19T00:20:30;26.07;;;18.87;;
52586;SDS011;38480;52.724;6.436;2023-03-19T00:22:56;23.23;;;18.10;;
52586;SDS011;38480;52.724;6.436;2023-03-19T00:25:22;27.67;;;18.20;;
52586;SDS011;38480;52.724;6.436;2023-03-19T00:27:48;25.53;;;17.60;;
52586;SDS011;38480;52.724;6.436;2023-03-19T00:30:14;22.20;;;17.13;;
52586;SDS011;38480;52.724;6.436;2023-03-19T00:32:40;23.57;;;17.17;;
52586;SDS011;38480;52.724;6.436;2023-03-19T00:35:07;20.93;;;16.97;;
52586;SDS011;38480;52.724;6.436;2023-03-19T00:37:33;23.87;;;16.70;;
52586;SDS011;38480;52.724;6.436;2023-03-19T00:39:59;23.70;;;17.13;;
52586;SDS011;38480;52.724;6.436;2023-03-19T00:42:25;22.40;;;16.93;;
52586;SDS011;38480;52.724;6.436;2023-03-19T00:44:51;18.63;;;15.43;;
52586;SDS011;38480;52.724;6.436;2023-03-19T00:47:17;24.23;;;16.40;;
52586;SDS011;38480;52.724;6.436;2023-03-19T00:49:43;24.80;;;17.10;;
52586;SDS011;38480;52.724;6.436;2023-03-19T00:52:09;21.67;;;16.90;;
52586;SDS011;38480;52.724;6.436;2023-03-19T00:54:35;26.37;;;16.63;;
52586;SDS011;38480;52.724;6.436;2023-03-19T00:57:01;20.43;;;15.57;;
52586;SDS011;38480;52.724;6.436;2023-03-19T00:59:27;21.17;;;15.13;;
52586;SDS011;38480;52.724;6.436;2023-03-19T01:01:53;23.93;;;14.50;;
52586;SDS011;38480;52.724;6.436;2023-03-19T01:04:19;17.03;;;11.50;;
52586;SDS011;38480;52.724;6.436;2023-03-19T01:06:47;16.27;;;10.53;;
52586;SDS011;38480;52.724;6.436;2023-03-19T01:09:13;18.47;;;11.03;;
52586;SDS011;38480;52.724;6.436;2023-03-19T01:11:39;11.70;;;8.73;;
52586;SDS011;38480;52.724;6.436;2023-03-19T01:14:05;13.43;;;8.43;;
52586;SDS011;38480;52.724;6.436;2023-03-19T01:16:31;11.33;;;7.97;;
52586;SDS011;38480;52.724;6.436;2023-03-19T01:18:58;14.67;;;8.63;;
52586;SDS011;38480;52.724;6.436;2023-03-19T01:21:25;12.60;;;7.33;;
52586;SDS011;38480;52.724;6.436;2023-03-19T01:23:55;11.67;;;8.20;;
52586;SDS011;38480;52.724;6.436;2023-03-19T01:26:21;12.50;;;7.63;;
52586;SDS011;38480;52.724;6.436;2023-03-19T01:28:47;12.37;;;8.13;;
52586;SDS011;38480;52.724;6.436;2023-03-19T01:31:13;16.73;;;9.57;;
52586;SDS011;38480;52.724;6.436;2023-03-19T01:33:39;11.33;;;7.13;;
52586;SDS011;38480;52.724;6.436;2023-03-19T01:36:06;12.83;;;7.70;;
52586;SDS011;38480;52.724;6.436;2023-03-19T01:38:33;9.77;;;6.83;;
52586;SDS011;38480;52.724;6.436;2023-03-19T01:40:59;11.17;;;6.73;;
52586;SDS011;38480;52.724;6.436;2023-03-19T01:43:29;11.73;;;6.67;;
52586;SDS011;38480;52.724;6.436;2023-03-19T01:46:04;10.37;;;6.47;;
52586;SDS011;38480;52.724;6.436;2023-03-19T01:48:38;9.37;;;6.93;;
52586;SDS011;38480;52.724;6.436;2023-03-19T01:51:05;14.90;;;8.70;;
52586;SDS011;38480;52.724;6.436;2023-03-19T01:53:32;9.40;;;6.63;;
52586;SDS011;38480;52.724;6.436;2023-03-19T01:56:02;11.20;;;6.83;;
52586;SDS011;38480;52.724;6.436;2023-03-19T01:58:29;10.90;;;7.10;;
52586;SDS011;38480;52.724;6.436;2023-03-19T02:00:55;11.50;;;7.43;;
52586;SDS011;38480;52.724;6.436;2023-03-19T02:03:22;9.43;;;6.80;;
52586;SDS011;38480;52.724;6.436;2023-03-19T02:05:48;8.23;;;6.40;;
52586;SDS011;38480;52.724;6.436;2023-03-19T02:08:15;9.60;;;6.43;;
52586;SDS011;38480;52.724;6.436;2023-03-19T02:10:42;9.73;;;6.47;;
52586;SDS011;38480;52.724;6.436;2023-03-19T02:13:09;12.97;;;7.53;;
52586;SDS011;38480;52.724;6.436;2023-03-19T02:15:35;8.70;;;6.83;;
52586;SDS011;38480;52.724;6.436;2023-03-19T02:18:02;10.90;;;7.30;;
52586;SDS011;38480;52.724;6.436;2023-03-19T02:20:33;15.43;;;7.90;;
52586;SDS011;38480;52.724;6.436;2023-03-19T02:25:40;13.43;;;6.83;;
52586;SDS011;38480;52.724;6.436;2023-03-19T02:28:11;10.70;;;7.13;;
52586;SDS011;38480;52.724;6.436;2023-03-19T02:30:37;11.53;;;6.70;;
52586;SDS011;38480;52.724;6.436;2023-03-19T02:33:04;10.93;;;6.37;;
52586;SDS011;38480;52.724;6.436;2023-03-19T02:35:30;12.60;;;7.90;;
52586;SDS011;38480;52.724;6.436;2023-03-19T02:37:58;10.07;;;6.27;;
52586;SDS011;38480;52.724;6.436;2023-03-19T02:40:26;13.20;;;7.23;;
52586;SDS011;38480;52.724;6.436;2023-03-19T02:42:54;16.97;;;7.67;;
52586;SDS011;38480;52.724;6.436;2023-03-19T02:45:20;11.27;;;7.43;;
52586;SDS011;38480;52.724;6.436;2023-03-19T02:47:46;7.63;;;5.53;;
52586;SDS011;38480;52.724;6.436;2023-03-19T02:50:12;9.33;;;6.23;;
52586;SDS011;38480;52.724;6.436;2023-03-19T02:52:38;11.87;;;7.50;;
52586;SDS011;38480;52.724;6.436;2023-03-19T02:55:04;8.27;;;6.60;;
52586;SDS011;38480;52.724;6.436;2023-03-19T02:57:31;9.30;;;6.13;;
52586;SDS011;38480;52.724;6.436;2023-03-19T02:59:57;10.37;;;5.37;;
52586;SDS011;38480;52.724;6.436;2023-03-19T03:02:24;9.70;;;5.73;;
52586;SDS011;38480;52.724;6.436;2023-03-19T03:04:50;9.50;;;5.70;;
52586;SDS011;38480;52.724;6.436;2023-03-19T03:07:16;11.13;;;5.83;;
52586;SDS011;38480;52.724;6.436;2023-03-19T03:09:42;8.07;;;6.27;;
52586;SDS011;38480;52.724;6.436;2023-03-19T03:12:08;8.17;;;6.30;;
52586;SDS011;38480;52.724;6.436;2023-03-19T03:14:34;7.83;;;6.07;;
52586;SDS011;38480;52.724;6.436;2023-03-19T03:17:00;9.37;;;6.80;;
52586;SDS011;38480;52.724;6.436;2023-03-19T03:19:27;9.17;;;6.47;;
52586;SDS011;38480;52.724;6.436;2023-03-19T03:21:52;10.07;;;6.70;;
52586;SDS011;38480;52.724;6.436;2023-03-19T03:24:18;11.83;;;6.43;;
52586;SDS011;38480;52.724;6.436;2023-03-19T03:26:45;10.13;;;6.37;;
52586;SDS011;38480;52.724;6.436;2023-03-19T03:29:11;9.13;;;6.70;;
52586;SDS011;38480;52.724;6.436;2023-03-19T03:31:37;9.10;;;6.37;;
52586;SDS011;38480;52.724;6.436;2023-03-19T03:34:03;10.10;;;7.27;;
52586;SDS011;38480;52.724;6.436;2023-03-19T03:36:29;9.53;;;6.90;;
52586;SDS011;38480;52.724;6.436;2023-03-19T03:38:55;15.60;;;7.77;;
52586;SDS011;38480;52.724;6.436;2023-03-19T03:41:21;8.17;;;6.73;;
52586;SDS011;38480;52.724;6.436;2023-03-19T03:43:47;9.83;;;7.63;;
52586;SDS011;38480;52.724;6.436;2023-03-19T03:46:13;14.07;;;7.87;;
52586;SDS011;38480;52.724;6.436;2023-03-19T03:48:39;11.30;;;7.73;;
52586;SDS011;38480;52.724;6.436;2023-03-19T03:51:05;9.77;;;6.93;;
52586;SDS011;38480;52.724;6.436;2023-03-19T03:53:31;9.03;;;6.73;;
52586;SDS011;38480;52.724;6.436;2023-03-19T03:55:57;9.50;;;6.80;;
52586;SDS011;38480;52.724;6.436;2023-03-19T03:58:23;11.00;;;7.93;;
52586;SDS011;38480;52.724;6.436;2023-03-19T04:00:50;11.97;;;7.07;;
52586;SDS011;38480;52.724;6.436;2023-03-19T04:03:16;7.63;;;6.37;;
52586;SDS011;38480;52.724;6.436;2023-03-19T04:05:43;9.30;;;6.90;;
52586;SDS011;38480;52.724;6.436;2023-03-19T04:08:09;10.03;;;7.17;;
52586;SDS011;38480;52.724;6.436;2023-03-19T04:10:38;13.67;;;8.07;;
52586;SDS011;38480;52.724;6.436;2023-03-19T04:13:06;12.67;;;7.43;;
52586;SDS011;38480;52.724;6.436;2023-03-19T04:15:32;11.07;;;8.00;;
52586;SDS011;38480;52.724;6.436;2023-03-19T04:17:58;9.90;;;6.70;;
52586;SDS011;38480;52.724;6.436;2023-03-19T04:20:24;10.23;;;7.87;;
52586;SDS011;38480;52.724;6.436;2023-03-19T04:22:51;8.47;;;6.43;;
52586;SDS011;38480;52.724;6.436;2023-03-19T04:25:17;8.73;;;6.87;;
52586;SDS011;38480;52.724;6.436;2023-03-19T04:27:43;14.83;;;8.30;;
52586;SDS011;38480;52.724;6.436;2023-03-19T04:30:09;10.93;;;7.33;;
52586;SDS011;38480;52.724;6.436;2023-03-19T04:32:36;9.83;;;6.90;;
52586;SDS011;38480;52.724;6.436;2023-03-19T04:35:02;13.60;;;7.93;;
52586;SDS011;38480;52.724;6.436;2023-03-19T04:37:29;12.87;;;7.50;;
52586;SDS011;38480;52.724;6.436;2023-03-19T04:39:55;12.53;;;8.03;;
52586;SDS011;38480;52.724;6.436;2023-03-19T04:42:21;13.80;;;8.10;;
52586;SDS011;38480;52.724;6.436;2023-03-19T04:44:47;13.20;;;7.70;;
52586;SDS011;38480;52.724;6.436;2023-03-19T04:47:13;11.50;;;7.90;;
52586;SDS011;38480;52.724;6.436;2023-03-19T04:49:39;10.10;;;7.70;;
52586;SDS011;38480;52.724;6.436;2023-03-19T04:52:06;10.60;;;7.70;;
52586;SDS011;38480;52.724;6.436;2023-03-19T04:54:33;12.60;;;8.20;;
52586;SDS011;38480;52.724;6.436;2023-03-19T04:56:59;13.83;;;8.23;;
52586;SDS011;38480;52.724;6.436;2023-03-19T04:59:25;12.83;;;8.37;;
52586;SDS011;38480;52.724;6.436;2023-03-19T05:01:51;12.27;;;8.27;;
52586;SDS011;38480;52.724;6.436;2023-03-19T05:04:17;12.93;;;9.70;;
52586;SDS011;38480;52.724;6.436;2023-03-19T05:06:43;12.77;;;9.77;;
52586;SDS011;38480;52.724;6.436;2023-03-19T05:09:09;18.00;;;10.80;;
52586;SDS011;38480;52.724;6.436;2023-03-19T05:11:35;15.37;;;9.80;;
52586;SDS011;38480;52.724;6.436;2023-03-19T05:14:02;14.97;;;9.60;;
52586;SDS011;38480;52.724;6.436;2023-03-19T05:16:28;15.57;;;10.33;;
52586;SDS011;38480;52.724;6.436;2023-03-19T05:18:54;19.37;;;11.20;;
52586;SDS011;38480;52.724;6.436;2023-03-19T05:21:20;15.30;;;11.13;;
52586;SDS011;38480;52.724;6.436;2023-03-19T05:23:46;18.57;;;12.27;;
52586;SDS011;38480;52.724;6.436;2023-03-19T05:26:16;21.87;;;11.47;;
52586;SDS011;38480;52.724;6.436;2023-03-19T05:28:42;20.60;;;12.13;;
52586;SDS011;38480;52.724;6.436;2023-03-19T05:31:08;19.77;;;11.87;;
52586;SDS011;38480;52.724;6.436;2023-03-19T05:33:34;19.23;;;11.80;;
52586;SDS011;38480;52.724;6.436;2023-03-19T05:36:01;18.20;;;12.43;;
52586;SDS011;38480;52.724;6.436;2023-03-19T05:38:27;23.40;;;13.33;;
52586;SDS011;38480;52.724;6.436;2023-03-19T05:40:53;20.00;;;13.83;;
52586;SDS011;38480;52.724;6.436;2023-03-19T05:43:19;27.83;;;16.63;;
52586;SDS011;38480;52.724;6.436;2023-03-19T05:45:48;22.97;;;15.40;;
52586;SDS011;38480;52.724;6.436;2023-03-19T05:48:15;22.83;;;14.27;;
52586;SDS011;38480;52.724;6.436;2023-03-19T05:50:41;24.33;;;14.27;;
52586;SDS011;38480;52.724;6.436;2023-03-19T05:53:07;25.73;;;15.63;;
52586;SDS011;38480;52.724;6.436;2023-03-19T05:55:33;26.57;;;15.67;;
52586;SDS011;38480;52.724;6.436;2023-03-19T05:57:59;25.63;;;15.13;;
52586;SDS011;38480;52.724;6.436;2023-03-19T06:00:25;24.80;;;15.10;;
52586;SDS011;38480;52.724;6.436;2023-03-19T06:02:51;26.90;;;17.37;;
52586;SDS011;38480;52.724;6.436;2023-03-19T06:05:19;30.40;;;17.50;;
52586;SDS011;38480;52.724;6.436;2023-03-19T06:07:45;34.07;;;18.13;;
52586;SDS011;38480;52.724;6.436;2023-03-19T06:10:11;43.53;;;20.27;;
52586;SDS011;38480;52.724;6.436;2023-03-19T06:12:37;29.00;;;18.20;;
52586;SDS011;38480;52.724;6.436;2023-03-19T06:15:03;31.07;;;19.73;;
52586;SDS011;38480;52.724;6.436;2023-03-19T06:17:30;30.70;;;18.83;;
52586;SDS011;38480;52.724;6.436;2023-03-19T06:19:56;34.20;;;19.97;;
52586;SDS011;38480;52.724;6.436;2023-03-19T06:22:22;36.57;;;19.60;;
52586;SDS011;38480;52.724;6.436;2023-03-19T06:24:48;35.00;;;19.50;;
52586;SDS011;38480;52.724;6.436;2023-03-19T06:27:14;37.40;;;21.47;;
52586;SDS011;38480;52.724;6.436;2023-03-19T06:29:40;43.13;;;22.27;;
52586;SDS011;38480;52.724;6.436;2023-03-19T06:32:07;36.70;;;21.20;;
52586;SDS011;38480;52.724;6.436;2023-03-19T06:34:33;38.87;;;21.10;;
52586;SDS011;38480;52.724;6.436;2023-03-19T06:36:59;41.17;;;21.80;;
52586;SDS011;38480;52.724;6.436;2023-03-19T06:39:26;38.03;;;20.60;;
52586;SDS011;38480;52.724;6.436;2023-03-19T06:41:52;51.40;;;23.70;;
52586;SDS011;38480;52.724;6.436;2023-03-19T06:44:18;45.37;;;22.17;;
52586;SDS011;38480;52.724;6.436;2023-03-19T06:46:44;43.63;;;22.80;;
52586;SDS011;38480;52.724;6.436;2023-03-19T06:49:10;47.63;;;23.43;;
52586;SDS011;38480;52.724;6.436;2023-03-19T06:51:36;41.57;;;22.30;;
52586;SDS011;38480;52.724;6.436;2023-03-19T06:54:02;43.43;;;22.03;;
52586;SDS011;38480;52.724;6.436;2023-03-19T06:56:28;46.37;;;22.70;;
52586;SDS011;38480;52.724;6.436;2023-03-19T06:58:54;61.73;;;27.50;;
52586;SDS011;38480;52.724;6.436;2023-03-19T07:01:20;42.17;;;22.60;;
52586;SDS011;38480;52.724;6.436;2023-03-19T07:03:47;35.00;;;21.43;;
52586;SDS011;38480;52.724;6.436;2023-03-19T07:06:13;37.13;;;21.63;;
52586;SDS011;38480;52.724;6.436;2023-03-19T07:08:39;35.53;;;21.50;;
52586;SDS011;38480;52.724;6.436;2023-03-19T07:11:10;41.90;;;22.20;;
52586;SDS011;38480;52.724;6.436;2023-03-19T07:13:36;36.47;;;21.27;;
52586;SDS011;38480;52.724;6.436;2023-03-19T07:16:02;35.17;;;20.43;;
52586;SDS011;38480;52.724;6.436;2023-03-19T07:18:28;38.70;;;23.00;;
52586;SDS011;38480;52.724;6.436;2023-03-19T07:20:54;44.20;;;25.10;;
52586;SDS011;38480;52.724;6.436;2023-03-19T07:23:20;42.37;;;24.77;;
52586;SDS011;38480;52.724;6.436;2023-03-19T07:25:46;34.43;;;21.97;;
52586;SDS011;38480;52.724;6.436;2023-03-19T07:28:13;41.20;;;23.53;;
52586;SDS011;38480;52.724;6.436;2023-03-19T07:30:39;44.43;;;24.20;;
52586;SDS011;38480;52.724;6.436;2023-03-19T07:33:05;40.20;;;24.30;;
52586;SDS011;38480;52.724;6.436;2023-03-19T07:35:32;34.67;;;22.20;;
52586;SDS011;38480;52.724;6.436;2023-03-19T07:37:58;41.27;;;24.30;;
52586;SDS011;38480;52.724;6.436;2023-03-19T07:40:24;36.90;;;22.77;;
52586;SDS011;38480;52.724;6.436;2023-03-19T07:42:50;33.90;;;22.60;;
52586;SDS011;38480;52.724;6.436;2023-03-19T07:45:17;29.80;;;20.17;;
52586;SDS011;38480;52.724;6.436;2023-03-19T07:47:43;29.47;;;20.07;;
52586;SDS011;38480;52.724;6.436;2023-03-19T07:50:09;42.33;;;21.93;;
52586;SDS011;38480;52.724;6.436;2023-03-19T07:52:35;36.37;;;21.63;;
52586;SDS011;38480;52.724;6.436;2023-03-19T07:55:02;27.97;;;19.77;;
52586;SDS011;38480;52.724;6.436;2023-03-19T07:57:28;34.90;;;20.50;;
52586;SDS011;38480;52.724;6.436;2023-03-19T07:59:54;31.13;;;20.50;;
52586;SDS011;38480;52.724;6.436;2023-03-19T08:02:20;29.57;;;19.33;;
52586;SDS011;38480;52.724;6.436;2023-03-19T08:04:46;32.23;;;20.13;;
52586;SDS011;38480;52.724;6.436;2023-03-19T08:07:12;26.63;;;17.50;;
52586;SDS011;38480;52.724;6.436;2023-03-19T08:09:39;23.53;;;16.50;;
52586;SDS011;38480;52.724;6.436;2023-03-19T08:12:06;28.10;;;17.90;;
52586;SDS011;38480;52.724;6.436;2023-03-19T08:14:32;23.47;;;17.53;;
52586;SDS011;38480;52.724;6.436;2023-03-19T08:16:58;24.33;;;16.30;;
52586;SDS011;38480;52.724;6.436;2023-03-19T08:19:25;21.97;;;16.07;;
52586;SDS011;38480;52.724;6.436;2023-03-19T08:21:51;22.53;;;15.67;;
52586;SDS011;38480;52.724;6.436;2023-03-19T08:24:17;16.43;;;11.93;;
52586;SDS011;38480;52.724;6.436;2023-03-19T08:26:43;18.30;;;12.60;;
52586;SDS011;38480;52.724;6.436;2023-03-19T08:29:10;23.57;;;15.13;;
52586;SDS011;38480;52.724;6.436;2023-03-19T08:31:36;14.17;;;12.20;;
52586;SDS011;38480;52.724;6.436;2023-03-19T08:34:02;15.57;;;10.97;;
52586;SDS011;38480;52.724;6.436;2023-03-19T08:36:28;14.53;;;11.57;;
52586;SDS011;38480;52.724;6.436;2023-03-19T08:38:55;11.77;;;10.30;;
52586;SDS011;38480;52.724;6.436;2023-03-19T08:41:22;15.87;;;12.20;;
52586;SDS011;38480;52.724;6.436;2023-03-19T08:43:48;14.40;;;12.10;;
52586;SDS011;38480;52.724;6.436;2023-03-19T08:46:15;16.77;;;12.30;;
52586;SDS011;38480;52.724;6.436;2023-03-19T08:48:41;20.03;;;13.83;;
52586;SDS011;38480;52.724;6.436;2023-03-19T08:51:07;17.00;;;12.83;;
52586;SDS011;38480;52.724;6.436;2023-03-19T08:53:33;17.00;;;12.00;;
52586;SDS011;38480;52.724;6.436;2023-03-19T08:56:01;17.40;;;12.20;;
52586;SDS011;38480;52.724;6.436;2023-03-19T08:58:28;15.17;;;11.80;;
52586;SDS011;38480;52.724;6.436;2023-03-19T09:01:01;17.83;;;12.97;;
52586;SDS011;38480;52.724;6.436;2023-03-19T09:05:56;17.20;;;13.67;;
52586;SDS011;38480;52.724;6.436;2023-03-19T09:08:22;18.37;;;13.27;;
52586;SDS011;38480;52.724;6.436;2023-03-19T09:10:48;23.33;;;14.43;;
52586;SDS011;38480;52.724;6.436;2023-03-19T09:13:14;18.13;;;13.87;;
52586;SDS011;38480;52.724;6.436;2023-03-19T09:15:40;15.50;;;12.80;;
52586;SDS011;38480;52.724;6.436;2023-03-19T09:18:06;13.93;;;11.97;;
52586;SDS011;38480;52.724;6.436;2023-03-19T09:20:32;14.70;;;11.53;;
52586;SDS011;38480;52.724;6.436;2023-03-19T09:22:59;15.43;;;12.50;;
52586;SDS011;38480;52.724;6.436;2023-03-19T09:25:25;14.40;;;11.90;;
52586;SDS011;38480;52.724;6.436;2023-03-19T09:27:51;13.80;;;11.57;;
52586;SDS011;38480;52.724;6.436;2023-03-19T09:30:17;16.90;;;12.50;;
52586;SDS011;38480;52.724;6.436;2023-03-19T09:32:43;16.60;;;13.13;;
52586;SDS011;38480;52.724;6.436;2023-03-19T09:35:09;17.83;;;13.37;;
52586;SDS011;38480;52.724;6.436;2023-03-19T09:37:35;17.77;;;14.37;;
52586;SDS011;38480;52.724;6.436;2023-03-19T09:40:01;15.03;;;12.53;;
52586;SDS011;38480;52.724;6.436;2023-03-19T09:45:15;12.97;;;11.23;;
52586;SDS011;38480;52.724;6.436;2023-03-19T09:47:41;18.73;;;13.60;;
52586;SDS011;38480;52.724;6.436;2023-03-19T09:57:48;17.83;;;14.37;;
52586;SDS011;38480;52.724;6.436;2023-03-19T10:02:44;15.83;;;13.27;;
52586;SDS011;38480;52.724;6.436;2023-03-19T10:10:50;16.47;;;12.40;;
52586;SDS011;38480;52.724;6.436;2023-03-19T10:13:25;15.07;;;12.07;;
52586;SDS011;38480;52.724;6.436;2023-03-19T10:15:54;11.83;;;10.50;;
52586;SDS011;38480;52.724;6.436;2023-03-19T10:18:22;17.77;;;12.27;;
52586;SDS011;38480;52.724;6.436;2023-03-19T10:26:02;14.60;;;11.53;;
52586;SDS011;38480;52.724;6.436;2023-03-19T10:28:29;12.30;;;10.23;;
52586;SDS011;38480;52.724;6.436;2023-03-19T10:36:10;13.40;;;10.47;;
52586;SDS011;38480;52.724;6.436;2023-03-19T10:38:40;11.60;;;9.30;;
52586;SDS011;38480;52.724;6.436;2023-03-19T10:41:22;13.60;;;11.20;;
52586;SDS011;38480;52.724;6.436;2023-03-19T10:43:58;11.83;;;10.27;;
52586;SDS011;38480;52.724;6.436;2023-03-19T10:46:24;12.17;;;9.80;;
52586;SDS011;38480;52.724;6.436;2023-03-19T10:48:50;11.40;;;9.13;;
52586;SDS011;38480;52.724;6.436;2023-03-19T10:51:23;11.63;;;9.77;;
52586;SDS011;38480;52.724;6.436;2023-03-19T10:53:54;15.03;;;10.43;;
52586;SDS011;38480;52.724;6.436;2023-03-19T10:56:24;13.23;;;11.00;;
52586;SDS011;38480;52.724;6.436;2023-03-19T10:59:02;13.33;;;10.07;;
52586;SDS011;38480;52.724;6.436;2023-03-19T11:01:35;9.70;;;8.70;;
52586;SDS011;38480;52.724;6.436;2023-03-19T11:04:18;12.47;;;11.07;;
52586;SDS011;38480;52.724;6.436;2023-03-19T11:06:49;12.05;;;8.70;;
52586;SDS011;38480;52.724;6.436;2023-03-19T11:09:37;13.47;;;9.77;;
52586;SDS011;38480;52.724;6.436;2023-03-19T11:12:06;12.90;;;9.80;;
52586;SDS011;38480;52.724;6.436;2023-03-19T11:14:37;10.30;;;8.40;;
52586;SDS011;38480;52.724;6.436;2023-03-19T11:19:39;11.00;;;9.60;;
52586;SDS011;38480;52.724;6.436;2023-03-19T11:24:37;11.70;;;10.10;;
52586;SDS011;38480;52.724;6.436;2023-03-19T11:27:03;12.07;;;9.87;;
52586;SDS011;38480;52.724;6.436;2023-03-19T11:29:29;10.93;;;9.23;;
52586;SDS011;38480;52.724;6.436;2023-03-19T11:32:02;10.70;;;9.30;;
52586;SDS011;38480;52.724;6.436;2023-03-19T11:34:39;11.10;;;8.47;;
52586;SDS011;38480;52.724;6.436;2023-03-19T11:39:47;11.30;;;8.63;;
52586;SDS011;38480;52.724;6.436;2023-03-19T11:42:32;10.63;;;8.80;;
52586;SDS011;38480;52.724;6.436;2023-03-19T11:51:16;13.13;;;9.10;;
52586;SDS011;38480;52.724;6.436;2023-03-19T11:53:21;10.00;;;8.50;;
52586;SDS011;38480;52.724;6.436;2023-03-19T12:03:48;10.53;;;8.97;;
52586;SDS011;38480;52.724;6.436;2023-03-19T12:06:20;13.07;;;10.73;;
52586;SDS011;38480;52.724;6.436;2023-03-19T12:13:51;14.50;;;11.10;;
52586;SDS011;38480;52.724;6.436;2023-03-19T12:16:26;12.23;;;9.63;;
52586;SDS011;38480;52.724;6.436;2023-03-19T12:26:42;13.70;;;10.50;;
52586;SDS011;38480;52.724;6.436;2023-03-19T12:34:18;10.97;;;9.37;;
52586;SDS011;38480;52.724;6.436;2023-03-19T12:37:05;11.17;;;9.10;;
52586;SDS011;38480;52.724;6.436;2023-03-19T12:39:33;11.40;;;9.27;;
52586;SDS011;38480;52.724;6.436;2023-03-19T12:42:01;10.23;;;8.53;;
52586;SDS011;38480;52.724;6.436;2023-03-19T12:44:36;11.93;;;9.80;;
52586;SDS011;38480;52.724;6.436;2023-03-19T12:47:05;9.93;;;8.90;;
52586;SDS011;38480;52.724;6.436;2023-03-19T12:52:16;10.80;;;8.87;;
52586;SDS011;38480;52.724;6.436;2023-03-19T13:00:21;11.07;;;9.63;;
52586;SDS011;38480;52.724;6.436;2023-03-19T13:05:18;12.70;;;10.50;;
52586;SDS011;38480;52.724;6.436;2023-03-19T13:07:52;11.57;;;10.37;;
52586;SDS011;38480;52.724;6.436;2023-03-19T13:10:21;11.30;;;9.73;;
52586;SDS011;38480;52.724;6.436;2023-03-19T13:12:48;12.00;;;10.33;;
52586;SDS011;38480;52.724;6.436;2023-03-19T13:15:15;11.97;;;9.40;;
52586;SDS011;38480;52.724;6.436;2023-03-19T13:23:01;13.40;;;10.77;;
52586;SDS011;38480;52.724;6.436;2023-03-19T13:25:33;12.80;;;11.50;;
52586;SDS011;38480;52.724;6.436;2023-03-19T13:28:00;11.73;;;10.53;;
52586;SDS011;38480;52.724;6.436;2023-03-19T13:30:26;11.83;;;10.60;;
52586;SDS011;38480;52.724;6.436;2023-03-19T13:33:01;13.40;;;12.00;;
52586;SDS011;38480;52.724;6.436;2023-03-19T13:35:33;14.87;;;13.27;;
52586;SDS011;38480;52.724;6.436;2023-03-19T13:40:57;13.37;;;12.07;;
52586;SDS011;38480;52.724;6.436;2023-03-19T13:50:58;12.27;;;10.97;;
52586;SDS011;38480;52.724;6.436;2023-03-19T13:55:58;13.07;;;11.77;;
52586;SDS011;38480;52.724;6.436;2023-03-19T13:58:25;12.60;;;11.33;;
52586;SDS011;38480;52.724;6.436;2023-03-19T14:03:58;12.00;;;10.73;;
52586;SDS011;38480;52.724;6.436;2023-03-19T14:06:33;13.47;;;11.30;;
52586;SDS011;38480;52.724;6.436;2023-03-19T14:09:00;12.93;;;11.47;;
52586;SDS011;38480;52.724;6.436;2023-03-19T14:11:28;15.83;;;14.23;;
52586;SDS011;38480;52.724;6.436;2023-03-19T14:13:56;15.53;;;12.53;;
52586;SDS011;38480;52.724;6.436;2023-03-19T14:16:29;15.13;;;13.60;;
52586;SDS011;38480;52.724;6.436;2023-03-19T14:18:56;15.87;;;14.17;;
52586;SDS011;38480;52.724;6.436;2023-03-19T14:24:18;16.07;;;13.23;;
52586;SDS011;38480;52.724;6.436;2023-03-19T14:26:44;15.27;;;13.40;;
52586;SDS011;38480;52.724;6.436;2023-03-19T14:29:12;15.67;;;13.70;;
52586;SDS011;38480;52.724;6.436;2023-03-19T14:31:44;15.53;;;13.23;;
52586;SDS011;38480;52.724;6.436;2023-03-19T14:34:16;16.57;;;13.77;;
52586;SDS011;38480;52.724;6.436;2023-03-19T14:37:18;19.20;;;14.70;;
52586;SDS011;38480;52.724;6.436;2023-03-19T14:39:41;16.85;;;13.80;;
52586;SDS011;38480;52.724;6.436;2023-03-19T14:49:53;23.00;;;16.38;;
52586;SDS011;38480;52.724;6.436;2023-03-19T14:52:25;20.67;;;15.50;;
52586;SDS011;38480;52.724;6.436;2023-03-19T14:54:59;22.70;;;16.77;;
52586;SDS011;38480;52.724;6.436;2023-03-19T14:59:52;20.37;;;13.60;;
52586;SDS011;38480;52.724;6.436;2023-03-19T15:04:44;18.40;;;13.37;;
52586;SDS011;38480;52.724;6.436;2023-03-19T15:07:21;16.87;;;12.03;;
52586;SDS011;38480;52.724;6.436;2023-03-19T15:09:52;18.80;;;13.47;;
52586;SDS011;38480;52.724;6.436;2023-03-19T15:17:29;19.03;;;11.53;;
52586;SDS011;38480;52.724;6.436;2023-03-19T15:19:59;20.37;;;13.13;;
52586;SDS011;38480;52.724;6.436;2023-03-19T15:22:30;20.47;;;12.93;;
52586;SDS011;38480;52.724;6.436;2023-03-19T15:25:17;21.47;;;12.97;;
52586;SDS011;38480;52.724;6.436;2023-03-19T15:27:43;21.47;;;13.50;;
52586;SDS011;38480;52.724;6.436;2023-03-19T15:32:44;23.90;;;13.93;;
52586;SDS011;38480;52.724;6.436;2023-03-19T15:35:10;25.10;;;15.03;;
52586;SDS011;38480;52.724;6.436;2023-03-19T15:37:38;25.17;;;15.50;;
52586;SDS011;38480;52.724;6.436;2023-03-19T15:40:06;27.27;;;15.80;;
52586;SDS011;38480;52.724;6.436;2023-03-19T15:42:34;26.53;;;16.03;;
52586;SDS011;38480;52.724;6.436;2023-03-19T15:47:29;26.70;;;16.03;;
52586;SDS011;38480;52.724;6.436;2023-03-19T15:52:29;30.90;;;17.53;;
52586;SDS011;38480;52.724;6.436;2023-03-19T15:54:58;26.90;;;15.83;;
52586;SDS011;38480;52.724;6.436;2023-03-19T15:57:25;31.93;;;17.47;;
52586;SDS011;38480;52.724;6.436;2023-03-19T15:59:52;33.60;;;17.63;;
52586;SDS011;38480;52.724;6.436;2023-03-19T16:02:25;34.63;;;19.90;;
52586;SDS011;38480;52.724;6.436;2023-03-19T16:04:53;33.10;;;19.00;;
52586;SDS011;38480;52.724;6.436;2023-03-19T16:07:23;32.10;;;19.00;;
52586;SDS011;38480;52.724;6.436;2023-03-19T16:09:50;37.67;;;20.67;;
52586;SDS011;38480;52.724;6.436;2023-03-19T16:14:54;33.83;;;17.67;;
52586;SDS011;38480;52.724;6.436;2023-03-19T16:17:20;33.83;;;19.10;;
52586;SDS011;38480;52.724;6.436;2023-03-19T16:19:49;32.50;;;18.20;;
52586;SDS011;38480;52.724;6.436;2023-03-19T16:22:37;28.13;;;16.57;;
52586;SDS011;38480;52.724;6.436;2023-03-19T16:25:02;31.93;;;17.17;;
52586;SDS011;38480;52.724;6.436;2023-03-19T16:27:38;31.57;;;17.83;;
52586;SDS011;38480;52.724;6.436;2023-03-19T16:30:12;33.72;;;17.73;;
52586;SDS011;38480;52.724;6.436;2023-03-19T16:32:40;34.13;;;18.80;;
52586;SDS011;38480;52.724;6.436;2023-03-19T16:45:19;35.07;;;18.60;;
52586;SDS011;38480;52.724;6.436;2023-03-19T16:47:46;34.83;;;18.70;;
52586;SDS011;38480;52.724;6.436;2023-03-19T16:50:13;37.60;;;19.37;;
52586;SDS011;38480;52.724;6.436;2023-03-19T16:52:40;33.90;;;17.83;;
52586;SDS011;38480;52.724;6.436;2023-03-19T16:55:26;31.73;;;16.80;;
52586;SDS011;38480;52.724;6.436;2023-03-19T16:57:53;31.67;;;17.43;;